sim
Sign-in with your pilot id or email,
or register
Callsign
Passwort

Schedule Details

Flight Number: RYR8996 (1)
Departure: Dublin Airport (EIDW) at 16:10
Arrival: Munich Airport (EDDM) at 18:35
Route: Ryanair Passenger Schedule. Enter filed route here before submitting Pirep.

Weather Information
Getting current METAR information for EIDW 212330Z 23004KT 190V270 9999 BKN022 13/11 Q1013 NOSIG
Getting current METAR information for EDDM 212350Z 10003KT 7000 2000NE BCFG NSC 09/09 Q1015 NOSIG

Schedule Frequency

Route Map